ADDS METAR Data INFO
IDs: Format: Raw Decoded Include TAF

Data at: 1913 UTC 23 Apr 2018

KFOD 231856Z AUTO 06011KT 10SM CLR 19/01 A3016 RMK AO2 SLP242 T01940011
KFOD 231756Z AUTO 06011KT 10SM CLR 19/02 A3018 RMK AO2 SLP248 T01890022 10189 20050 58014
KFOD 231656Z AUTO 07010KT 10SM CLR 18/02 A3020 RMK AO2 SLP256 T01780022
KFOD 231556Z AUTO 09006KT 10SM CLR 16/02 A3021 RMK AO2 SLP261 T01560017
KFOD 231456Z AUTO 09006KT 10SM CLR 13/02 A3022 RMK AO2 SLP265 T01330022 58004
KFOD 231356Z AUTO 07007KT 10SM CLR 11/04 A3024 RMK AO2 SLP269 T01060039
KFOD 231256Z AUTO 05004KT 10SM CLR 07/04 A3024 RMK AO2 SLP273 T00720039
KFOD 231156Z AUTO 00000KT 10SM CLR 05/03 A3023 RMK AO2 SLP269 T00500028 10067 20028 53009
KFOD 231056Z AUTO 00000KT 10SM CLR 03/02 A3022 RMK AO2 SLP264 T00330022
KFOD 230956Z AUTO 00000KT 10SM OVC090 07/04 A3021 RMK AO2 SLP259 T00670039
KFOD 230856Z AUTO 08006KT 10SM OVC090 06/03 A3021 RMK AO2 SLP259 T00560033 58000
KFOD 230756Z AUTO 00000KT 10SM FEW100 06/03 A3021 RMK AO2 SLP261 T00560028
KFOD 230656Z AUTO 35004KT 10SM CLR 06/03 A3021 RMK AO2 SLP262 T00560033
KFOD 230556Z AUTO 00000KT 10SM CLR 07/03 A3021 RMK AO2 SLP259 T00670033 10172 20050 55001
KFOD 230456Z AUTO 04003KT 10SM CLR 07/03 A3020 RMK AO2 SLP259 T00670033 401890028
KFOD 230356Z AUTO 04004KT 10SM CLR 08/04 A3021 RMK AO2 SLP262 T00830044
KFOD 230256Z AUTO 08006KT 10SM CLR 08/04 A3021 RMK AO2 SLP263 T00780039 53009
KFOD 230156Z AUTO 07009KT 10SM CLR 10/04 A3020 RMK AO2 SLP257 T01000044
KFOD 230056Z AUTO 10007KT 10SM CLR 13/03 A3019 RMK AO2 SLP254 T01280028
KFOD 222356Z AUTO 08011KT 10SM CLR 17/02 A3019 RMK AO2 SLP253 T01720022 10189 20161 56008
KFOD 222256Z AUTO 10009KT 10SM CLR 18/01 A3019 RMK AO2 SLP254 T01830011
KFOD 222156Z AUTO 09013KT 10SM CLR 18/01 A3020 RMK AO2 SLP256 T01830011
KFOD 222056Z AUTO 10012KT 10SM CLR 18/01 A3021 RMK AO2 SLP260 T01830011 58018
KFOD 221956Z AUTO 09011G19KT 10SM CLR 17/01 A3024 RMK AO2 PK WND 09026/1857 SLP268 T01720011
KFOD 221856Z AUTO 05011G21KT 10SM CLR 17/00 A3025 RMK AO2 SLP272 T01670000
KFOD 221756Z AUTO 06011KT 10SM CLR 16/01 A3027 RMK AO2 SLP278 T01610006 10161 20028 58008
KFOD 221656Z AUTO 10013KT 10SM CLR 14/02 A3028 RMK AO2 SLP284 T01440017
KFOD 221556Z AUTO 08015KT 10SM CLR 13/01 A3028 RMK AO2 SLP285 T01330011
KFOD 221456Z AUTO 10013KT 10SM CLR 12/01 A3029 RMK AO2 SLP288 T01170011 51000
KFOD 221356Z AUTO 09012KT 10SM CLR 09/02 A3029 RMK AO2 SLP289 T00940022
KFOD 221256Z AUTO 09010KT 10SM CLR 06/03 A3030 RMK AO2 SLP294 T00610028
KFOD 221156Z AUTO 07008KT 10SM CLR 03/01 A3029 RMK AO2 SLP290 T00280011 10089 20028 53000
KFOD 221056Z AUTO 06008KT 10SM CLR 06/02 A3027 RMK AO2 SLP284 T00560022
KFOD 220956Z AUTO 05007KT 10SM CLR 06/03 A3028 RMK AO2 SLP285 T00560028
KFOD 220856Z AUTO 05006KT 10SM CLR 06/03 A3029 RMK AO2 SLP288 T00560028 55002
KFOD 220756Z AUTO 06006KT 10SM CLR 07/02 A3029 RMK AO2 SLP287 T00670022